sensor_id;sensor_type;location;lat;lon;timestamp;temperature;humidity
7296;DHT22;40758;54.038;11.684;2022-09-09T00:01:27;17.10;99.90
7296;DHT22;40758;54.038;11.684;2022-09-09T00:04:12;17.00;99.90
7296;DHT22;40758;54.038;11.684;2022-09-09T00:06:46;17.00;99.90
7296;DHT22;40758;54.038;11.684;2022-09-09T00:09:28;17.00;99.90
7296;DHT22;40758;54.038;11.684;2022-09-09T00:12:04;17.00;99.90
7296;DHT22;40758;54.038;11.684;2022-09-09T00:14:45;17.00;99.90
7296;DHT22;40758;54.038;11.684;2022-09-09T00:17:26;17.00;99.90
7296;DHT22;40758;54.038;11.684;2022-09-09T00:20:12;17.00;99.90
7296;DHT22;40758;54.038;11.684;2022-09-09T00:22:53;17.00;99.90
7296;DHT22;40758;54.038;11.684;2022-09-09T00:25:31;17.00;99.90
7296;DHT22;40758;54.038;11.684;2022-09-09T00:28:13;17.00;99.90
7296;DHT22;40758;54.038;11.684;2022-09-09T00:30:47;17.00;99.90
7296;DHT22;40758;54.038;11.684;2022-09-09T00:33:19;17.00;99.90
7296;DHT22;40758;54.038;11.684;2022-09-09T00:35:53;17.00;99.90
7296;DHT22;40758;54.038;11.684;2022-09-09T00:38:31;17.00;99.90
7296;DHT22;40758;54.038;11.684;2022-09-09T00:41:09;17.00;99.90
7296;DHT22;40758;54.038;11.684;2022-09-09T00:43:49;17.00;99.90
7296;DHT22;40758;54.038;11.684;2022-09-09T00:47:01;17.00;99.90
7296;DHT22;40758;54.038;11.684;2022-09-09T00:49:49;17.00;99.90
7296;DHT22;40758;54.038;11.684;2022-09-09T00:52:37;17.00;99.90
7296;DHT22;40758;54.038;11.684;2022-09-09T00:55:17;17.00;99.90
7296;DHT22;40758;54.038;11.684;2022-09-09T00:57:55;17.00;99.90
7296;DHT22;40758;54.038;11.684;2022-09-09T01:00:26;17.00;99.90
7296;DHT22;40758;54.038;11.684;2022-09-09T01:05:19;17.00;99.90
7296;DHT22;40758;54.038;11.684;2022-09-09T01:07:54;17.00;99.90
7296;DHT22;40758;54.038;11.684;2022-09-09T01:10:30;17.00;99.90
7296;DHT22;40758;54.038;11.684;2022-09-09T01:13:14;17.00;99.90
7296;DHT22;40758;54.038;11.684;2022-09-09T01:15:50;17.00;99.90
7296;DHT22;40758;54.038;11.684;2022-09-09T01:18:31;17.00;99.90
7296;DHT22;40758;54.038;11.684;2022-09-09T01:21:14;17.00;99.90
7296;DHT22;40758;54.038;11.684;2022-09-09T01:24:15;17.00;99.90
7296;DHT22;40758;54.038;11.684;2022-09-09T01:26:55;17.00;99.90
7296;DHT22;40758;54.038;11.684;2022-09-09T01:29:27;17.00;99.90
7296;DHT22;40758;54.038;11.684;2022-09-09T01:31:57;16.90;99.90
7296;DHT22;40758;54.038;11.684;2022-09-09T01:34:30;16.90;99.90
7296;DHT22;40758;54.038;11.684;2022-09-09T01:37:04;16.90;99.90
7296;DHT22;40758;54.038;11.684;2022-09-09T01:39:36;17.00;99.90
7296;DHT22;40758;54.038;11.684;2022-09-09T01:42:09;17.00;99.90
7296;DHT22;40758;54.038;11.684;2022-09-09T01:44:42;17.00;99.90
7296;DHT22;40758;54.038;11.684;2022-09-09T01:47:11;17.00;99.90
7296;DHT22;40758;54.038;11.684;2022-09-09T01:49:40;16.90;99.90
7296;DHT22;40758;54.038;11.684;2022-09-09T01:52:11;16.90;99.90
7296;DHT22;40758;54.038;11.684;2022-09-09T01:54:40;16.90;99.90
7296;DHT22;40758;54.038;11.684;2022-09-09T01:57:17;16.90;99.90
7296;DHT22;40758;54.038;11.684;2022-09-09T02:00:04;16.90;99.90
7296;DHT22;40758;54.038;11.684;2022-09-09T02:02:38;16.90;99.90
7296;DHT22;40758;54.038;11.684;2022-09-09T02:05:20;16.90;99.90
7296;DHT22;40758;54.038;11.684;2022-09-09T02:08:00;16.90;99.90
7296;DHT22;40758;54.038;11.684;2022-09-09T02:10:40;16.90;99.90
7296;DHT22;40758;54.038;11.684;2022-09-09T02:13:20;16.90;99.90
7296;DHT22;40758;54.038;11.684;2022-09-09T02:15:53;16.90;99.90
7296;DHT22;40758;54.038;11.684;2022-09-09T02:18:29;17.00;99.90
7296;DHT22;40758;54.038;11.684;2022-09-09T02:21:03;17.00;99.90
7296;DHT22;40758;54.038;11.684;2022-09-09T02:23:36;17.00;99.90
7296;DHT22;40758;54.038;11.684;2022-09-09T02:26:07;17.00;99.90
7296;DHT22;40758;54.038;11.684;2022-09-09T02:28:41;17.00;99.90
7296;DHT22;40758;54.038;11.684;2022-09-09T02:31:10;17.00;99.90
7296;DHT22;40758;54.038;11.684;2022-09-09T02:33:44;17.10;99.90
7296;DHT22;40758;54.038;11.684;2022-09-09T02:36:17;17.00;99.90
7296;DHT22;40758;54.038;11.684;2022-09-09T02:38:47;17.00;99.90
7296;DHT22;40758;54.038;11.684;2022-09-09T02:41:22;16.90;99.90
7296;DHT22;40758;54.038;11.684;2022-09-09T02:43:55;16.90;99.90
7296;DHT22;40758;54.038;11.684;2022-09-09T02:46:36;16.80;99.90
7296;DHT22;40758;54.038;11.684;2022-09-09T02:49:25;16.80;99.90
7296;DHT22;40758;54.038;11.684;2022-09-09T02:52:06;16.90;99.90
7296;DHT22;40758;54.038;11.684;2022-09-09T02:54:41;16.90;99.90
7296;DHT22;40758;54.038;11.684;2022-09-09T02:57:16;16.90;99.90
7296;DHT22;40758;54.038;11.684;2022-09-09T02:59:50;16.90;99.90
7296;DHT22;40758;54.038;11.684;2022-09-09T03:05:15;16.80;99.90
7296;DHT22;40758;54.038;11.684;2022-09-09T03:07:44;16.80;99.90
7296;DHT22;40758;54.038;11.684;2022-09-09T03:10:13;16.80;99.90
7296;DHT22;40758;54.038;11.684;2022-09-09T03:12:42;16.70;99.90
7296;DHT22;40758;54.038;11.684;2022-09-09T03:15:11;16.70;99.90
7296;DHT22;40758;54.038;11.684;2022-09-09T03:17:41;16.70;99.90
7296;DHT22;40758;54.038;11.684;2022-09-09T03:20:11;16.80;99.90
7296;DHT22;40758;54.038;11.684;2022-09-09T03:22:41;16.80;99.90
7296;DHT22;40758;54.038;11.684;2022-09-09T03:25:12;16.90;99.90
7296;DHT22;40758;54.038;11.684;2022-09-09T03:27:41;17.00;99.90
7296;DHT22;40758;54.038;11.684;2022-09-09T03:30:11;17.00;99.90
7296;DHT22;40758;54.038;11.684;2022-09-09T03:32:40;17.00;99.90
7296;DHT22;40758;54.038;11.684;2022-09-09T03:35:15;16.90;99.90
7296;DHT22;40758;54.038;11.684;2022-09-09T03:37:46;16.90;99.90
7296;DHT22;40758;54.038;11.684;2022-09-09T03:40:15;16.90;99.90
7296;DHT22;40758;54.038;11.684;2022-09-09T03:42:46;16.90;99.90
7296;DHT22;40758;54.038;11.684;2022-09-09T03:45:15;17.00;99.90
7296;DHT22;40758;54.038;11.684;2022-09-09T03:47:44;17.00;99.90
7296;DHT22;40758;54.038;11.684;2022-09-09T03:50:13;17.00;99.90
7296;DHT22;40758;54.038;11.684;2022-09-09T03:52:42;17.10;99.90
7296;DHT22;40758;54.038;11.684;2022-09-09T03:55:13;17.20;99.90
7296;DHT22;40758;54.038;11.684;2022-09-09T03:57:41;17.10;99.90
7296;DHT22;40758;54.038;11.684;2022-09-09T04:00:13;17.10;99.90
7296;DHT22;40758;54.038;11.684;2022-09-09T04:02:42;17.20;99.90
7296;DHT22;40758;54.038;11.684;2022-09-09T04:05:12;17.20;99.90
7296;DHT22;40758;54.038;11.684;2022-09-09T04:07:41;17.20;99.90
7296;DHT22;40758;54.038;11.684;2022-09-09T04:10:12;17.20;99.90
7296;DHT22;40758;54.038;11.684;2022-09-09T04:12:42;17.20;99.90
7296;DHT22;40758;54.038;11.684;2022-09-09T04:15:15;17.30;99.90
7296;DHT22;40758;54.038;11.684;2022-09-09T04:17:45;17.30;99.90
7296;DHT22;40758;54.038;11.684;2022-09-09T04:20:17;17.20;99.90
7296;DHT22;40758;54.038;11.684;2022-09-09T04:22:46;17.20;99.90
7296;DHT22;40758;54.038;11.684;2022-09-09T04:25:18;17.30;99.90
7296;DHT22;40758;54.038;11.684;2022-09-09T04:27:47;17.30;99.90
7296;DHT22;40758;54.038;11.684;2022-09-09T04:30:15;17.30;99.90
7296;DHT22;40758;54.038;11.684;2022-09-09T04:32:47;17.30;99.90
7296;DHT22;40758;54.038;11.684;2022-09-09T04:35:16;17.30;99.90
7296;DHT22;40758;54.038;11.684;2022-09-09T04:37:48;17.40;99.90
7296;DHT22;40758;54.038;11.684;2022-09-09T04:40:18;17.40;99.90
7296;DHT22;40758;54.038;11.684;2022-09-09T04:42:49;17.40;99.90
7296;DHT22;40758;54.038;11.684;2022-09-09T04:45:18;17.40;99.90
7296;DHT22;40758;54.038;11.684;2022-09-09T04:47:48;17.40;99.90
7296;DHT22;40758;54.038;11.684;2022-09-09T04:50:17;17.40;99.90
7296;DHT22;40758;54.038;11.684;2022-09-09T04:52:45;17.50;99.90
7296;DHT22;40758;54.038;11.684;2022-09-09T04:55:15;17.50;99.90
7296;DHT22;40758;54.038;11.684;2022-09-09T04:57:46;17.50;99.90
7296;DHT22;40758;54.038;11.684;2022-09-09T05:00:15;17.50;99.90
7296;DHT22;40758;54.038;11.684;2022-09-09T05:05:15;17.50;99.90
7296;DHT22;40758;54.038;11.684;2022-09-09T05:07:45;17.60;99.90
7296;DHT22;40758;54.038;11.684;2022-09-09T05:10:14;17.50;99.90
7296;DHT22;40758;54.038;11.684;2022-09-09T05:12:52;17.50;99.90
7296;DHT22;40758;54.038;11.684;2022-09-09T05:15:21;17.60;99.90
7296;DHT22;40758;54.038;11.684;2022-09-09T05:17:50;17.60;99.90
7296;DHT22;40758;54.038;11.684;2022-09-09T05:20:22;17.50;99.90
7296;DHT22;40758;54.038;11.684;2022-09-09T05:22:53;17.50;99.90
7296;DHT22;40758;54.038;11.684;2022-09-09T05:25:29;17.60;99.90
7296;DHT22;40758;54.038;11.684;2022-09-09T05:27:58;17.60;99.90
7296;DHT22;40758;54.038;11.684;2022-09-09T05:30:27;17.60;99.90
7296;DHT22;40758;54.038;11.684;2022-09-09T05:32:58;17.60;99.90
7296;DHT22;40758;54.038;11.684;2022-09-09T05:35:28;17.60;99.90
7296;DHT22;40758;54.038;11.684;2022-09-09T05:37:59;17.60;99.90
7296;DHT22;40758;54.038;11.684;2022-09-09T05:40:31;17.70;99.90
7296;DHT22;40758;54.038;11.684;2022-09-09T05:43:01;17.80;99.90
7296;DHT22;40758;54.038;11.684;2022-09-09T05:45:34;17.80;99.90
7296;DHT22;40758;54.038;11.684;2022-09-09T05:48:03;17.90;99.90
7296;DHT22;40758;54.038;11.684;2022-09-09T05:50:35;17.90;99.90
7296;DHT22;40758;54.038;11.684;2022-09-09T05:53:04;17.80;99.90
7296;DHT22;40758;54.038;11.684;2022-09-09T05:55:32;17.90;99.90
7296;DHT22;40758;54.038;11.684;2022-09-09T05:58:04;18.00;99.90
7296;DHT22;40758;54.038;11.684;2022-09-09T06:00:33;18.00;99.90
7296;DHT22;40758;54.038;11.684;2022-09-09T06:03:03;18.10;99.90
7296;DHT22;40758;54.038;11.684;2022-09-09T06:05:33;18.10;99.90
7296;DHT22;40758;54.038;11.684;2022-09-09T06:08:02;18.00;99.90
7296;DHT22;40758;54.038;11.684;2022-09-09T06:10:32;18.10;99.90
7296;DHT22;40758;54.038;11.684;2022-09-09T06:13:00;18.10;99.90
7296;DHT22;40758;54.038;11.684;2022-09-09T06:15:29;18.10;99.90
7296;DHT22;40758;54.038;11.684;2022-09-09T06:17:58;18.20;99.90
7296;DHT22;40758;54.038;11.684;2022-09-09T06:20:27;18.10;99.90
7296;DHT22;40758;54.038;11.684;2022-09-09T06:22:59;17.90;99.90
7296;DHT22;40758;54.038;11.684;2022-09-09T06:25:28;17.80;99.90
7296;DHT22;40758;54.038;11.684;2022-09-09T06:27:57;17.70;99.90
7296;DHT22;40758;54.038;11.684;2022-09-09T06:30:28;17.70;99.90
7296;DHT22;40758;54.038;11.684;2022-09-09T06:32:57;17.80;99.90
7296;DHT22;40758;54.038;11.684;2022-09-09T06:35:26;17.90;99.90
7296;DHT22;40758;54.038;11.684;2022-09-09T06:37:55;18.10;99.90
7296;DHT22;40758;54.038;11.684;2022-09-09T06:40:26;18.20;99.90
7296;DHT22;40758;54.038;11.684;2022-09-09T06:42:59;18.40;99.90
7296;DHT22;40758;54.038;11.684;2022-09-09T06:45:30;18.40;99.90
7296;DHT22;40758;54.038;11.684;2022-09-09T06:47:58;18.40;99.90
7296;DHT22;40758;54.038;11.684;2022-09-09T06:50:28;18.50;99.90
7296;DHT22;40758;54.038;11.684;2022-09-09T06:52:57;18.70;99.90
7296;DHT22;40758;54.038;11.684;2022-09-09T06:55:28;18.70;99.90
7296;DHT22;40758;54.038;11.684;2022-09-09T06:57:57;18.60;99.90
7296;DHT22;40758;54.038;11.684;2022-09-09T07:00:27;18.60;99.90
7296;DHT22;40758;54.038;11.684;2022-09-09T07:05:15;19.10;99.90
7296;DHT22;40758;54.038;11.684;2022-09-09T07:07:45;19.40;99.90
7296;DHT22;40758;54.038;11.684;2022-09-09T07:10:13;19.60;99.90
7296;DHT22;40758;54.038;11.684;2022-09-09T07:12:42;19.90;99.90
7296;DHT22;40758;54.038;11.684;2022-09-09T07:15:11;20.10;99.90
7296;DHT22;40758;54.038;11.684;2022-09-09T07:17:41;20.10;99.90
7296;DHT22;40758;54.038;11.684;2022-09-09T07:20:09;20.00;99.90
7296;DHT22;40758;54.038;11.684;2022-09-09T07:22:39;19.90;99.90
7296;DHT22;40758;54.038;11.684;2022-09-09T07:25:08;19.70;99.90
7296;DHT22;40758;54.038;11.684;2022-09-09T07:27:37;19.60;99.90
7296;DHT22;40758;54.038;11.684;2022-09-09T07:30:09;19.50;99.90
7296;DHT22;40758;54.038;11.684;2022-09-09T07:32:46;19.70;99.90
7296;DHT22;40758;54.038;11.684;2022-09-09T07:35:15;19.70;99.90
7296;DHT22;40758;54.038;11.684;2022-09-09T07:37:45;19.90;99.90
7296;DHT22;40758;54.038;11.684;2022-09-09T07:40:17;19.90;99.90
7296;DHT22;40758;54.038;11.684;2022-09-09T07:42:48;19.70;99.90
7296;DHT22;40758;54.038;11.684;2022-09-09T07:45:17;19.80;99.90
7296;DHT22;40758;54.038;11.684;2022-09-09T07:47:46;19.90;99.90
7296;DHT22;40758;54.038;11.684;2022-09-09T07:50:16;19.90;99.90
7296;DHT22;40758;54.038;11.684;2022-09-09T07:52:53;20.00;99.90
7296;DHT22;40758;54.038;11.684;2022-09-09T07:55:26;20.60;99.90
7296;DHT22;40758;54.038;11.684;2022-09-09T07:57:58;21.60;99.90
7296;DHT22;40758;54.038;11.684;2022-09-09T08:00:29;21.90;99.90
7296;DHT22;40758;54.038;11.684;2022-09-09T08:03:01;22.40;99.90
7296;DHT22;40758;54.038;11.684;2022-09-09T08:05:34;22.90;99.90
7296;DHT22;40758;54.038;11.684;2022-09-09T08:08:13;23.20;99.90
7296;DHT22;40758;54.038;11.684;2022-09-09T08:10:50;23.00;99.90
7296;DHT22;40758;54.038;11.684;2022-09-09T08:13:20;23.20;99.90
7296;DHT22;40758;54.038;11.684;2022-09-09T08:15:51;23.20;99.90
7296;DHT22;40758;54.038;11.684;2022-09-09T08:18:24;23.80;99.90
7296;DHT22;40758;54.038;11.684;2022-09-09T08:20:58;24.30;99.90
7296;DHT22;40758;54.038;11.684;2022-09-09T08:23:41;24.50;99.90
7296;DHT22;40758;54.038;11.684;2022-09-09T08:26:16;25.10;99.90
7296;DHT22;40758;54.038;11.684;2022-09-09T08:28:50;25.60;99.90
7296;DHT22;40758;54.038;11.684;2022-09-09T08:31:21;24.80;99.90
7296;DHT22;40758;54.038;11.684;2022-09-09T08:33:51;25.00;99.90
7296;DHT22;40758;54.038;11.684;2022-09-09T08:36:21;25.20;99.90
7296;DHT22;40758;54.038;11.684;2022-09-09T08:38:55;25.30;99.90
7296;DHT22;40758;54.038;11.684;2022-09-09T08:44:41;23.70;99.90
7296;DHT22;40758;54.038;11.684;2022-09-09T08:47:27;23.40;99.90
7296;DHT22;40758;54.038;11.684;2022-09-09T08:50:13;24.00;99.90
7296;DHT22;40758;54.038;11.684;2022-09-09T08:52:53;25.70;99.90
7296;DHT22;40758;54.038;11.684;2022-09-09T08:55:37;27.10;99.90
7296;DHT22;40758;54.038;11.684;2022-09-09T08:58:13;27.80;99.90
7296;DHT22;40758;54.038;11.684;2022-09-09T09:01:00;26.60;99.90
7296;DHT22;40758;54.038;11.684;2022-09-09T09:05:22;25.30;99.90
7296;DHT22;40758;54.038;11.684;2022-09-09T09:08:08;24.40;99.90
7296;DHT22;40758;54.038;11.684;2022-09-09T09:10:47;23.70;99.90
7296;DHT22;40758;54.038;11.684;2022-09-09T09:13:20;23.60;99.90
7296;DHT22;40758;54.038;11.684;2022-09-09T09:15:55;23.50;99.90
7296;DHT22;40758;54.038;11.684;2022-09-09T09:18:35;23.30;99.90
7296;DHT22;40758;54.038;11.684;2022-09-09T09:21:12;23.20;99.90
7296;DHT22;40758;54.038;11.684;2022-09-09T09:23:53;22.80;99.90
7296;DHT22;40758;54.038;11.684;2022-09-09T09:26:28;22.50;99.90
7296;DHT22;40758;54.038;11.684;2022-09-09T09:29:08;22.50;99.90
7296;DHT22;40758;54.038;11.684;2022-09-09T09:31:44;22.50;99.90
7296;DHT22;40758;54.038;11.684;2022-09-09T09:34:17;22.50;99.90
7296;DHT22;40758;54.038;11.684;2022-09-09T09:36:54;22.80;99.90
7296;DHT22;40758;54.038;11.684;2022-09-09T09:39:26;23.10;99.90
7296;DHT22;40758;54.038;11.684;2022-09-09T09:42:17;23.60;99.90
7296;DHT22;40758;54.038;11.684;2022-09-09T09:44:49;23.70;99.90
7296;DHT22;40758;54.038;11.684;2022-09-09T09:47:21;24.20;99.90
7296;DHT22;40758;54.038;11.684;2022-09-09T09:49:54;24.60;99.90
7296;DHT22;40758;54.038;11.684;2022-09-09T09:52:28;25.00;99.90
7296;DHT22;40758;54.038;11.684;2022-09-09T09:55:03;25.70;99.90
7296;DHT22;40758;54.038;11.684;2022-09-09T09:57:41;26.30;99.90
7296;DHT22;40758;54.038;11.684;2022-09-09T10:00:14;27.20;99.90
7296;DHT22;40758;54.038;11.684;2022-09-09T10:06:30;26.40;99.90
7296;DHT22;40758;54.038;11.684;2022-09-09T10:09:17;26.40;99.90
7296;DHT22;40758;54.038;11.684;2022-09-09T10:12:20;26.30;99.90
7296;DHT22;40758;54.038;11.684;2022-09-09T10:15:02;26.70;99.90
7296;DHT22;40758;54.038;11.684;2022-09-09T10:17:54;27.50;99.90
7296;DHT22;40758;54.038;11.684;2022-09-09T10:20:36;27.40;99.90
7296;DHT22;40758;54.038;11.684;2022-09-09T10:23:23;26.60;99.90
7296;DHT22;40758;54.038;11.684;2022-09-09T10:26:17;26.60;99.90
7296;DHT22;40758;54.038;11.684;2022-09-09T10:29:31;26.60;99.90
7296;DHT22;40758;54.038;11.684;2022-09-09T10:32:30;27.30;99.90
7296;DHT22;40758;54.038;11.684;2022-09-09T10:35:12;27.90;99.90
7296;DHT22;40758;54.038;11.684;2022-09-09T10:38:13;28.20;99.90
7296;DHT22;40758;54.038;11.684;2022-09-09T10:41:05;28.70;99.90
7296;DHT22;40758;54.038;11.684;2022-09-09T10:47:00;29.60;99.90
7296;DHT22;40758;54.038;11.684;2022-09-09T10:50:05;29.50;99.90
7296;DHT22;40758;54.038;11.684;2022-09-09T10:52:49;28.70;99.90
7296;DHT22;40758;54.038;11.684;2022-09-09T10:55:27;28.10;99.90
7296;DHT22;40758;54.038;11.684;2022-09-09T10:58:05;28.10;99.90
7296;DHT22;40758;54.038;11.684;2022-09-09T11:00:41;28.00;99.90
7296;DHT22;40758;54.038;11.684;2022-09-09T11:05:17;27.00;99.90
7296;DHT22;40758;54.038;11.684;2022-09-09T11:07:52;27.00;99.90
7296;DHT22;40758;54.038;11.684;2022-09-09T11:10:33;26.30;99.90
7296;DHT22;40758;54.038;11.684;2022-09-09T11:13:13;25.80;99.90
7296;DHT22;40758;54.038;11.684;2022-09-09T11:15:57;25.40;99.90
7296;DHT22;40758;54.038;11.684;2022-09-09T11:18:31;26.00;99.90
7296;DHT22;40758;54.038;11.684;2022-09-09T11:21:15;26.40;99.90
7296;DHT22;40758;54.038;11.684;2022-09-09T11:23:53;25.80;99.90
7296;DHT22;40758;54.038;11.684;2022-09-09T11:26:31;24.50;99.90
7296;DHT22;40758;54.038;11.684;2022-09-09T11:29:19;23.70;99.90
7296;DHT22;40758;54.038;11.684;2022-09-09T11:32:18;24.00;99.90
7296;DHT22;40758;54.038;11.684;2022-09-09T11:35:09;24.50;99.90
7296;DHT22;40758;54.038;11.684;2022-09-09T11:38:09;24.70;99.90
7296;DHT22;40758;54.038;11.684;2022-09-09T11:40:45;25.20;99.90
7296;DHT22;40758;54.038;11.684;2022-09-09T11:43:17;25.00;99.90
7296;DHT22;40758;54.038;11.684;2022-09-09T11:45:56;25.30;99.90
7296;DHT22;40758;54.038;11.684;2022-09-09T11:48:32;25.60;99.90
7296;DHT22;40758;54.038;11.684;2022-09-09T11:51:05;25.80;99.90
7296;DHT22;40758;54.038;11.684;2022-09-09T11:53:53;26.70;99.90
7296;DHT22;40758;54.038;11.684;2022-09-09T11:56:28;26.40;99.90
7296;DHT22;40758;54.038;11.684;2022-09-09T11:59:03;25.60;99.90
7296;DHT22;40758;54.038;11.684;2022-09-09T12:01:37;25.50;99.90
7296;DHT22;40758;54.038;11.684;2022-09-09T12:07:31;26.40;99.90
7296;DHT22;40758;54.038;11.684;2022-09-09T12:10:23;27.40;99.90
7296;DHT22;40758;54.038;11.684;2022-09-09T12:12:55;26.90;99.90
7296;DHT22;40758;54.038;11.684;2022-09-09T12:15:47;26.90;99.90
7296;DHT22;40758;54.038;11.684;2022-09-09T12:18:23;26.70;99.90
7296;DHT22;40758;54.038;11.684;2022-09-09T12:21:01;26.40;99.90
7296;DHT22;40758;54.038;11.684;2022-09-09T12:23:42;26.00;99.90
7296;DHT22;40758;54.038;11.684;2022-09-09T12:26:28;25.60;99.90
7296;DHT22;40758;54.038;11.684;2022-09-09T12:29:15;25.60;99.90
7296;DHT22;40758;54.038;11.684;2022-09-09T12:31:58;26.20;99.90
7296;DHT22;40758;54.038;11.684;2022-09-09T12:34:39;26.50;99.90
7296;DHT22;40758;54.038;11.684;2022-09-09T12:37:24;26.70;99.90
7296;DHT22;40758;54.038;11.684;2022-09-09T12:40:00;26.50;99.90
7296;DHT22;40758;54.038;11.684;2022-09-09T12:42:32;26.40;99.90
7296;DHT22;40758;54.038;11.684;2022-09-09T12:45:16;26.80;99.90
7296;DHT22;40758;54.038;11.684;2022-09-09T12:47:53;27.50;99.90
7296;DHT22;40758;54.038;11.684;2022-09-09T12:50:28;27.40;99.90
7296;DHT22;40758;54.038;11.684;2022-09-09T12:53:04;27.00;99.90
7296;DHT22;40758;54.038;11.684;2022-09-09T12:55:38;27.20;99.90
7296;DHT22;40758;54.038;11.684;2022-09-09T12:58:19;27.10;99.90
7296;DHT22;40758;54.038;11.684;2022-09-09T13:00:50;26.90;99.90
7296;DHT22;40758;54.038;11.684;2022-09-09T13:05:19;27.80;99.90
7296;DHT22;40758;54.038;11.684;2022-09-09T13:08:00;27.90;99.90
7296;DHT22;40758;54.038;11.684;2022-09-09T13:10:33;28.10;99.90
7296;DHT22;40758;54.038;11.684;2022-09-09T13:13:28;28.50;99.90
7296;DHT22;40758;54.038;11.684;2022-09-09T13:16:01;28.60;99.90
7296;DHT22;40758;54.038;11.684;2022-09-09T13:18:35;28.50;99.90
7296;DHT22;40758;54.038;11.684;2022-09-09T13:21:10;28.00;99.90
7296;DHT22;40758;54.038;11.684;2022-09-09T13:23:39;28.00;99.90
7296;DHT22;40758;54.038;11.684;2022-09-09T13:26:21;27.50;99.90
7296;DHT22;40758;54.038;11.684;2022-09-09T13:28:53;27.80;99.90
7296;DHT22;40758;54.038;11.684;2022-09-09T13:31:24;29.20;99.90
7296;DHT22;40758;54.038;11.684;2022-09-09T13:33:57;29.30;99.90
7296;DHT22;40758;54.038;11.684;2022-09-09T13:36:32;28.70;99.90
7296;DHT22;40758;54.038;11.684;2022-09-09T13:39:04;28.40;99.90
7296;DHT22;40758;54.038;11.684;2022-09-09T13:41:35;27.90;99.90
7296;DHT22;40758;54.038;11.684;2022-09-09T13:44:05;27.70;99.90
7296;DHT22;40758;54.038;11.684;2022-09-09T13:46:36;27.80;99.90
7296;DHT22;40758;54.038;11.684;2022-09-09T13:49:19;27.40;99.90
7296;DHT22;40758;54.038;11.684;2022-09-09T13:52:02;27.00;99.90
7296;DHT22;40758;54.038;11.684;2022-09-09T13:54:34;27.30;99.90
7296;DHT22;40758;54.038;11.684;2022-09-09T13:57:03;28.20;99.90
7296;DHT22;40758;54.038;11.684;2022-09-09T13:59:33;28.30;99.90
7296;DHT22;40758;54.038;11.684;2022-09-09T14:02:21;28.70;99.90
7296;DHT22;40758;54.038;11.684;2022-09-09T14:04:51;29.00;99.90
7296;DHT22;40758;54.038;11.684;2022-09-09T14:07:23;30.00;98.10
7296;DHT22;40758;54.038;11.684;2022-09-09T14:09:53;30.90;89.50
7296;DHT22;40758;54.038;11.684;2022-09-09T14:12:25;30.30;88.50
7296;DHT22;40758;54.038;11.684;2022-09-09T14:14:54;30.30;90.60
7296;DHT22;40758;54.038;11.684;2022-09-09T14:17:23;30.70;84.30
7296;DHT22;40758;54.038;11.684;2022-09-09T14:19:54;30.30;83.20
7296;DHT22;40758;54.038;11.684;2022-09-09T14:22:25;30.10;83.80
7296;DHT22;40758;54.038;11.684;2022-09-09T14:24:55;29.40;85.40
7296;DHT22;40758;54.038;11.684;2022-09-09T14:27:25;29.20;87.60
7296;DHT22;40758;54.038;11.684;2022-09-09T14:29:54;29.20;90.10
7296;DHT22;40758;54.038;11.684;2022-09-09T14:32:24;28.90;90.80
7296;DHT22;40758;54.038;11.684;2022-09-09T14:34:53;29.20;91.30
7296;DHT22;40758;54.038;11.684;2022-09-09T14:37:24;30.10;91.20
7296;DHT22;40758;54.038;11.684;2022-09-09T14:39:53;30.30;86.30
7296;DHT22;40758;54.038;11.684;2022-09-09T14:42:24;30.50;82.50
7296;DHT22;40758;54.038;11.684;2022-09-09T14:44:53;30.60;85.50
7296;DHT22;40758;54.038;11.684;2022-09-09T14:47:28;30.70;80.90
7296;DHT22;40758;54.038;11.684;2022-09-09T14:49:57;30.40;79.80
7296;DHT22;40758;54.038;11.684;2022-09-09T14:52:30;30.20;82.70
7296;DHT22;40758;54.038;11.684;2022-09-09T14:54:59;29.20;88.00
7296;DHT22;40758;54.038;11.684;2022-09-09T14:57:27;28.10;93.00
7296;DHT22;40758;54.038;11.684;2022-09-09T14:59:59;27.20;98.30
7296;DHT22;40758;54.038;11.684;2022-09-09T15:05:15;25.50;99.90
7296;DHT22;40758;54.038;11.684;2022-09-09T15:07:45;25.00;99.90
7296;DHT22;40758;54.038;11.684;2022-09-09T15:10:15;24.50;99.90
7296;DHT22;40758;54.038;11.684;2022-09-09T15:12:44;24.00;99.90
7296;DHT22;40758;54.038;11.684;2022-09-09T15:15:13;23.60;99.90
7296;DHT22;40758;54.038;11.684;2022-09-09T15:17:42;23.30;99.90
7296;DHT22;40758;54.038;11.684;2022-09-09T15:20:11;23.00;99.90
7296;DHT22;40758;54.038;11.684;2022-09-09T15:22:42;22.70;99.90
7296;DHT22;40758;54.038;11.684;2022-09-09T15:25:11;22.40;99.90
7296;DHT22;40758;54.038;11.684;2022-09-09T15:27:42;22.10;99.90
7296;DHT22;40758;54.038;11.684;2022-09-09T15:30:12;21.70;99.90
7296;DHT22;40758;54.038;11.684;2022-09-09T15:32:41;21.10;99.90
7296;DHT22;40758;54.038;11.684;2022-09-09T15:35:10;20.40;99.90
7296;DHT22;40758;54.038;11.684;2022-09-09T15:37:39;18.90;99.90
7296;DHT22;40758;54.038;11.684;2022-09-09T15:40:10;16.90;99.90
7296;DHT22;40758;54.038;11.684;2022-09-09T15:42:39;15.80;99.90
7296;DHT22;40758;54.038;11.684;2022-09-09T15:45:09;15.50;99.90
7296;DHT22;40758;54.038;11.684;2022-09-09T15:47:39;15.50;99.90
7296;DHT22;40758;54.038;11.684;2022-09-09T15:50:08;15.50;99.90
7296;DHT22;40758;54.038;11.684;2022-09-09T15:52:38;15.70;99.90
7296;DHT22;40758;54.038;11.684;2022-09-09T15:55:08;15.80;99.90
7296;DHT22;40758;54.038;11.684;2022-09-09T15:57:39;16.10;99.90
7296;DHT22;40758;54.038;11.684;2022-09-09T16:00:10;16.50;99.90
7296;DHT22;40758;54.038;11.684;2022-09-09T16:02:41;16.60;99.90
7296;DHT22;40758;54.038;11.684;2022-09-09T16:05:10;16.80;99.90
7296;DHT22;40758;54.038;11.684;2022-09-09T16:07:39;16.80;99.90
7296;DHT22;40758;54.038;11.684;2022-09-09T16:10:14;16.90;99.90
7296;DHT22;40758;54.038;11.684;2022-09-09T16:12:43;16.90;99.90
7296;DHT22;40758;54.038;11.684;2022-09-09T16:15:16;17.00;99.90
7296;DHT22;40758;54.038;11.684;2022-09-09T16:17:48;16.90;99.90
7296;DHT22;40758;54.038;11.684;2022-09-09T16:20:17;16.90;99.90
7296;DHT22;40758;54.038;11.684;2022-09-09T16:22:47;16.80;99.90
7296;DHT22;40758;54.038;11.684;2022-09-09T16:25:18;16.80;99.90
7296;DHT22;40758;54.038;11.684;2022-09-09T16:27:49;16.90;99.90
7296;DHT22;40758;54.038;11.684;2022-09-09T16:30:20;17.00;99.90
7296;DHT22;40758;54.038;11.684;2022-09-09T17:05:42;17.00;99.90
7296;DHT22;40758;54.038;11.684;2022-09-09T17:08:19;17.20;99.90
7296;DHT22;40758;54.038;11.684;2022-09-09T17:10:58;17.20;99.90
7296;DHT22;40758;54.038;11.684;2022-09-09T17:13:28;17.20;99.90
7296;DHT22;40758;54.038;11.684;2022-09-09T17:15:57;17.30;99.90
7296;DHT22;40758;54.038;11.684;2022-09-09T17:18:28;17.40;99.90
7296;DHT22;40758;54.038;11.684;2022-09-09T17:21:04;17.40;99.90